Samantha, Ohio
Current Conditions -  °F | °C
As of 6:54 PM on Monday 20 Oct 2014 (Local Time) from KILN Reporting Station
Broken Clouds Broken Clouds  
Wind Chill: 55°   Ceiling: 6000
Heat Index: 55°   Visibility: 10mi
Dew Point: 49°   Wind: 7mph
Humidity: 80%   Direction: 190°S
Pressure: 29.87"   Gusts: NA
Location:  39.3503°N, 83.5434°W
Report Text: KILN 202254Z AUTO 19006KT 10SM SCT034 BKN060 BKN070 13/09 A2987 RMK AO2 SLP125 T01280094
Loading
Personal Weather Stations






























Interactive Weather Map
Tropical Storm Tracking
New forecast layout! Learn more

10-Day Weather Forecast

Advertisements
Track Severe Weather on mobile